Elma, Washington
Current Conditions -  °F | °C
As of 11:53 AM on Sunday 21 Dec 2014 (Local Time) from KSHN Reporting Station
Overcast Overcast  
Wind Chill: 53°   Ceiling: 1600
Heat Index: 53°   Visibility: 10mi
Dew Point: 48°   Wind: 15mph
Humidity: 83%   Direction: 240°WSW
Pressure: 29.95"   Gusts: 23mph
Location:  47°N, 123.41°W
Report Text: KSHN 211953Z AUTO 24013G20KT 10SM BKN016 OVC024 12/09 A2995 RMK AO2 SLP144 T01170089
Loading
Personal Weather Stations






























Interactive Weather Map New forecast layout! Learn more

10-Day Weather Forecast

Advertisements
Track Severe Weather on mobile